Humboldt, Arizona
Current Conditions -  °F | °C
As of 12:53 PM on Wednesday 28 Jan 2015 (Local Time) from KPRC Reporting Station
Few Clouds Few Clouds  
Wind Chill: 56°   Ceiling: Unl
Heat Index: 56°   Visibility: 10mi
Dew Point: 34°   Wind: 3mph
Humidity: 44%   Direction: 50°NE
Pressure: 30.23"   Gusts: NA
Location:  34.5°N, 112.24°W
Report Text: KPRC 281953Z 05003KT 10SM FEW030 13/01 A3023 RMK AO2 SLP202 T01330011
Loading
Personal Weather Stations






























Interactive Weather Map New forecast layout! Learn more

10-Day Weather Forecast

Advertisements
Track Severe Weather on mobile